createdAt,value
2019-04-04T00:01:44.362Z,67.92
2019-04-04T00:04:14.208Z,67.92
2019-04-04T00:06:44.045Z,67.96
2019-04-04T00:09:13.942Z,68.03
2019-04-04T00:11:46.187Z,68.02
2019-04-04T00:14:15.926Z,67.95
2019-04-04T00:16:46.775Z,67.70
2019-04-04T00:19:18.334Z,67.60
2019-04-04T00:21:48.339Z,68.02
2019-04-04T00:24:19.330Z,67.95
2019-04-04T00:26:49.244Z,67.87
2019-04-04T00:29:19.032Z,68.22
2019-04-04T00:31:49.872Z,68.58
2019-04-04T00:34:21.363Z,68.55
2019-04-04T00:36:51.254Z,68.62
2019-04-04T00:39:21.475Z,68.63
2019-04-04T00:41:51.389Z,68.77
2019-04-04T00:44:23.033Z,68.40
2019-04-04T00:46:53.455Z,68.31
2019-04-04T00:49:23.329Z,68.31
2019-04-04T00:51:53.898Z,68.32
2019-04-04T00:54:23.757Z,68.43
2019-04-04T00:56:53.640Z,68.66
2019-04-04T00:59:24.198Z,68.70
2019-04-04T01:01:55.065Z,68.68
2019-04-04T01:04:25.835Z,68.79
2019-04-04T01:06:56.623Z,68.87
2019-04-04T01:09:26.570Z,68.87
2019-04-04T01:11:56.648Z,69.00
2019-04-04T01:14:27.149Z,69.03
2019-04-04T01:16:58.007Z,69.00
2019-04-04T01:19:27.862Z,68.91
2019-04-04T01:21:57.669Z,68.97
2019-04-04T01:24:29.112Z,69.23
2019-04-04T01:27:00.017Z,69.34
2019-04-04T01:29:29.806Z,69.20
2019-04-04T01:31:59.685Z,69.23
2019-04-04T01:34:29.509Z,69.24
2019-04-04T01:36:59.403Z,69.10
2019-04-04T01:39:31.334Z,69.06
2019-04-04T01:42:01.507Z,69.20
2019-04-04T01:44:31.318Z,69.42
2019-04-04T01:47:01.152Z,69.58
2019-04-04T01:49:31.067Z,69.65
2019-04-04T01:52:01.074Z,69.55
2019-04-04T01:54:32.039Z,69.23
2019-04-04T01:57:01.993Z,68.70
2019-04-04T01:59:31.938Z,68.26
2019-04-04T02:02:01.809Z,68.14
2019-04-04T02:04:32.148Z,68.21
2019-04-04T02:07:02.126Z,68.13
2019-04-04T02:09:34.097Z,67.93
2019-04-04T02:12:03.533Z,67.87
2019-04-04T02:14:33.542Z,67.95
2019-04-04T02:17:03.382Z,68.00
2019-04-04T02:19:33.151Z,67.86
2019-04-04T02:22:03.103Z,67.74
2019-04-04T02:24:32.949Z,67.76
2019-04-04T02:27:02.866Z,67.64
2019-04-04T02:29:33.432Z,67.65
2019-04-04T02:32:06.527Z,67.51
2019-04-04T02:34:37.862Z,67.38
2019-04-04T02:37:08.956Z,67.40
2019-04-04T02:39:39.952Z,67.32
2019-04-04T02:42:09.879Z,67.31
2019-04-04T02:44:39.787Z,67.21
2019-04-04T02:47:10.184Z,67.12
2019-04-04T02:49:40.634Z,67.16
2019-04-04T02:52:13.213Z,67.23
2019-04-04T02:54:42.243Z,67.33
2019-04-04T02:57:12.185Z,67.33
2019-04-04T02:59:44.913Z,67.15
2019-04-04T03:02:14.896Z,67.08
2019-04-04T03:04:46.793Z,67.45
2019-04-04T03:07:16.521Z,67.48
2019-04-04T03:09:46.621Z,67.55
2019-04-04T03:12:17.050Z,67.92
2019-04-04T03:14:50.280Z,68.09
2019-04-04T03:17:18.815Z,68.19
2019-04-04T03:19:48.920Z,67.92
2019-04-04T03:22:18.914Z,67.78
2019-04-04T03:24:48.752Z,67.76
2019-04-04T03:27:18.745Z,67.75
2019-04-04T03:29:49.814Z,67.80
2019-04-04T03:32:19.556Z,67.51
2019-04-04T03:34:51.253Z,67.29
2019-04-04T03:37:21.193Z,67.24
2019-04-04T03:39:53.094Z,67.16
2019-04-04T03:42:23.954Z,67.08
2019-04-04T03:44:54.401Z,67.65
2019-04-04T03:47:25.420Z,68.05
2019-04-04T03:49:57.653Z,68.29
2019-04-04T03:52:27.574Z,68.46
2019-04-04T03:54:57.686Z,68.99
2019-04-04T03:57:27.599Z,69.04
2019-04-04T03:59:58.372Z,69.53
2019-04-04T04:02:28.345Z,69.49
2019-04-04T04:05:00.892Z,69.01
2019-04-04T04:07:29.905Z,68.75
2019-04-04T04:10:00.481Z,68.46
2019-04-04T04:12:31.474Z,68.32
2019-04-04T04:15:01.681Z,68.15
2019-04-04T04:17:31.657Z,67.96
2019-04-04T04:20:04.196Z,68.49
2019-04-04T04:22:33.268Z,68.11
2019-04-04T04:25:03.898Z,67.58
2019-04-04T04:27:35.034Z,67.19
2019-04-04T04:30:07.445Z,67.14
2019-04-04T04:32:37.666Z,67.12
2019-04-04T04:35:09.155Z,67.04
2019-04-04T04:37:39.458Z,67.12
2019-04-04T04:40:13.802Z,67.16
2019-04-04T04:42:41.079Z,67.20
2019-04-04T04:45:12.298Z,67.30
2019-04-04T04:47:42.597Z,67.38
2019-04-04T04:50:12.974Z,67.26
2019-04-04T04:52:46.489Z,67.28
2019-04-04T04:55:15.707Z,67.20
2019-04-04T04:57:45.582Z,67.11
2019-04-04T05:00:16.722Z,67.18
2019-04-04T05:02:46.701Z,67.23
2019-04-04T05:05:18.499Z,67.24
2019-04-04T05:07:48.945Z,67.07
2019-04-04T05:10:18.993Z,67.06
2019-04-04T05:12:48.900Z,67.03
2019-04-04T05:15:21.245Z,67.29
2019-04-04T05:17:50.488Z,67.37
2019-04-04T05:20:20.374Z,67.63
2019-04-04T05:22:50.206Z,67.77
2019-04-04T05:25:20.041Z,67.70
2019-04-04T05:27:49.917Z,68.09
2019-04-04T05:30:20.627Z,67.91
2019-04-04T05:32:56.565Z,68.37
2019-04-04T05:35:26.947Z,68.70
2019-04-04T05:37:58.189Z,68.73
2019-04-04T05:40:30.632Z,69.38
2019-04-04T05:43:00.009Z,68.93
2019-04-04T05:45:29.980Z,68.84
2019-04-04T05:48:00.004Z,68.65
2019-04-04T05:50:31.043Z,68.43
2019-04-04T05:53:02.135Z,68.16
2019-04-04T05:55:32.694Z,68.39
2019-04-04T05:58:02.715Z,68.40
2019-04-04T06:00:32.560Z,68.57
2019-04-04T06:03:02.310Z,68.70
2019-04-04T06:05:32.197Z,69.00
2019-04-04T06:08:02.207Z,69.10
2019-04-04T06:10:32.129Z,68.35
2019-04-04T06:13:02.010Z,67.64
2019-04-04T06:15:32.261Z,67.45
2019-04-04T06:18:02.636Z,67.24
2019-04-04T06:20:32.691Z,67.25
2019-04-04T06:23:02.725Z,67.65
2019-04-04T06:25:35.571Z,68.40
2019-04-04T06:28:04.145Z,69.28
2019-04-04T06:30:43.087Z,69.21
2019-04-04T06:33:07.256Z,69.05
2019-04-04T06:35:39.643Z,69.11
2019-04-04T06:38:09.892Z,68.77
2019-04-04T06:40:39.679Z,68.93
2019-04-04T06:43:11.494Z,68.94
2019-04-04T06:45:41.472Z,68.78
2019-04-04T06:48:11.793Z,68.69
2019-04-04T06:50:43.077Z,68.28
2019-04-04T06:53:13.547Z,68.10
2019-04-04T06:55:43.547Z,68.27
2019-04-04T06:58:13.348Z,68.13
2019-04-04T07:00:43.656Z,67.64
2019-04-04T07:03:13.510Z,67.11
2019-04-04T07:05:43.485Z,66.39
2019-04-04T07:08:15.195Z,65.73
2019-04-04T07:10:57.179Z,65.55
2019-04-04T07:13:22.004Z,65.35
2019-04-04T07:16:05.456Z,65.51
2019-04-04T07:18:22.886Z,65.84
2019-04-04T07:20:52.672Z,66.08
2019-04-04T07:23:22.449Z,65.66
2019-04-04T07:25:53.524Z,65.89
2019-04-04T07:28:23.815Z,66.55
2019-04-04T07:30:54.736Z,67.01
2019-04-04T07:33:25.385Z,67.38
2019-04-04T07:35:55.196Z,67.45
2019-04-04T07:38:26.577Z,66.73
2019-04-04T07:40:56.592Z,66.13
2019-04-04T07:43:26.510Z,65.56
2019-04-04T07:45:59.711Z,65.25
2019-04-04T07:48:28.558Z,64.91
2019-04-04T07:50:59.265Z,64.81
2019-04-04T07:53:29.177Z,65.39
2019-04-04T07:56:00.233Z,65.56
2019-04-04T07:58:30.098Z,65.57
2019-04-04T08:01:00.078Z,65.24
2019-04-04T08:03:30.140Z,65.05
2019-04-04T08:05:59.950Z,64.86
2019-04-04T08:08:29.873Z,64.95
2019-04-04T08:10:59.753Z,64.99
2019-04-04T08:13:29.634Z,64.87
2019-04-04T08:15:59.778Z,64.86
2019-04-04T08:18:29.592Z,64.74
2019-04-04T08:20:59.549Z,64.92
2019-04-04T08:23:29.370Z,65.05
2019-04-04T08:25:59.206Z,65.32
2019-04-04T08:28:29.243Z,65.48
2019-04-04T08:30:59.216Z,65.80
2019-04-04T08:33:29.058Z,65.35
2019-04-04T08:36:05.985Z,64.73
2019-04-04T08:38:31.867Z,63.73
2019-04-04T08:41:01.765Z,63.44
2019-04-04T08:43:31.697Z,63.90
2019-04-04T08:46:01.623Z,64.42
2019-04-04T08:48:31.600Z,64.50
2019-04-04T08:51:01.854Z,64.31
2019-04-04T08:53:39.918Z,64.19
2019-04-04T08:56:03.452Z,64.08
2019-04-04T08:58:33.386Z,63.78
2019-04-04T09:01:03.356Z,63.65
2019-04-04T09:03:33.256Z,64.09
2019-04-04T09:06:03.369Z,64.76
2019-04-04T09:08:34.244Z,64.71
2019-04-04T09:11:04.336Z,64.81
2019-04-04T09:13:34.339Z,64.96
2019-04-04T09:16:04.243Z,65.45
2019-04-04T09:18:34.050Z,65.29
2019-04-04T09:21:04.091Z,64.66
2019-04-04T09:23:33.926Z,64.35
2019-04-04T09:26:05.885Z,63.97
2019-04-04T09:28:35.470Z,63.78
2019-04-04T09:31:05.465Z,63.41
2019-04-04T09:33:37.732Z,63.20
2019-04-04T09:36:07.564Z,63.30
2019-04-04T09:38:38.555Z,63.10
2019-04-04T09:41:08.664Z,62.70
2019-04-04T09:43:38.895Z,62.36
2019-04-04T09:46:08.733Z,62.34
2019-04-04T09:48:38.729Z,62.66
2019-04-04T09:51:08.774Z,62.77
2019-04-04T09:53:52.357Z,62.63
2019-04-04T09:56:10.351Z,62.79
2019-04-04T09:58:40.146Z,62.76
2019-04-04T10:01:10.675Z,62.74
2019-04-04T10:03:40.851Z,62.82
2019-04-04T10:06:10.709Z,63.08
2019-04-04T10:08:41.067Z,63.57
2019-04-04T10:11:11.025Z,63.71
2019-04-04T10:13:41.006Z,62.90
2019-04-04T10:16:10.923Z,61.80
2019-04-04T10:18:40.810Z,61.21
2019-04-04T10:21:12.492Z,61.27
2019-04-04T10:23:42.656Z,61.66
2019-04-04T10:26:13.017Z,61.84
2019-04-04T10:28:43.036Z,62.16
2019-04-04T10:31:13.044Z,62.68
2019-04-04T10:33:42.886Z,62.95
2019-04-04T10:36:12.917Z,63.16
2019-04-04T10:38:42.850Z,63.51
2019-04-04T10:41:12.728Z,63.86
2019-04-04T10:43:42.519Z,64.07
2019-04-04T10:46:12.709Z,63.85
2019-04-04T10:48:43.700Z,63.99
2019-04-04T10:51:13.995Z,64.02
2019-04-04T10:53:43.945Z,63.97
2019-04-04T10:56:13.745Z,63.43
2019-04-04T10:58:43.512Z,63.01
2019-04-04T11:01:13.816Z,62.62
2019-04-04T11:03:43.729Z,62.14
2019-04-04T11:06:13.806Z,61.69
2019-04-04T11:08:44.705Z,62.65
2019-04-04T11:11:14.594Z,62.94
2019-04-04T11:13:44.423Z,62.64
2019-04-04T11:16:14.325Z,62.06
2019-04-04T11:18:44.215Z,61.43
2019-04-04T11:21:14.052Z,61.15
2019-04-04T11:23:44.120Z,61.61
2019-04-04T11:26:14.434Z,62.26
2019-04-04T11:28:44.268Z,62.49
2019-04-04T11:31:15.070Z,62.41
2019-04-04T11:33:45.089Z,62.50
2019-04-04T11:36:15.105Z,62.57
2019-04-04T11:38:45.875Z,63.12
2019-04-04T11:41:15.854Z,63.29
2019-04-04T11:43:45.663Z,63.40
2019-04-04T11:46:15.687Z,63.50
2019-04-04T11:48:45.602Z,63.07
2019-04-04T11:51:15.817Z,62.73
2019-04-04T11:53:45.653Z,62.34
2019-04-04T11:56:15.556Z,63.00
2019-04-04T11:58:45.399Z,63.26
2019-04-04T12:01:15.656Z,62.76
2019-04-04T12:03:45.550Z,62.48
2019-04-04T12:06:15.639Z,62.32
2019-04-04T12:08:45.639Z,62.54
2019-04-04T12:11:15.549Z,63.66
2019-04-04T12:13:45.568Z,64.03
2019-04-04T12:16:15.800Z,64.00
2019-04-04T12:18:45.924Z,64.24
2019-04-04T12:21:15.939Z,63.88
2019-04-04T12:23:46.070Z,63.41
2019-04-04T12:26:16.144Z,63.06
2019-04-04T12:28:46.321Z,63.09
2019-04-04T12:31:16.564Z,63.31
2019-04-04T12:33:46.665Z,63.27
2019-04-04T12:36:24.439Z,63.18
2019-04-04T12:38:48.533Z,63.31
2019-04-04T12:41:18.507Z,63.42
2019-04-04T12:43:48.663Z,63.63
2019-04-04T12:46:18.566Z,63.83
2019-04-04T12:48:48.423Z,63.87
2019-04-04T12:51:18.279Z,64.09
2019-04-04T12:53:48.346Z,64.12
2019-04-04T12:56:19.222Z,63.87
2019-04-04T12:58:49.042Z,63.69
2019-04-04T13:01:21.299Z,63.68
2019-04-04T13:03:50.679Z,63.50
2019-04-04T13:06:20.651Z,63.27
2019-04-04T13:08:51.805Z,63.28
2019-04-04T13:11:21.564Z,63.35
2019-04-04T13:13:51.486Z,63.23
2019-04-04T13:16:21.472Z,63.33
2019-04-04T13:18:51.434Z,63.58
2019-04-04T13:21:21.711Z,63.62
2019-04-04T13:23:51.594Z,63.15
2019-04-04T13:26:21.888Z,63.01
2019-04-04T13:28:51.753Z,63.25
2019-04-04T13:31:22.498Z,63.13
2019-04-04T13:33:52.270Z,63.40
2019-04-04T13:36:22.133Z,63.63
2019-04-04T13:38:54.910Z,64.01
2019-04-04T13:41:23.540Z,64.36
2019-04-04T13:43:54.231Z,64.17
2019-04-04T13:46:26.722Z,64.04
2019-04-04T13:48:56.537Z,64.08
2019-04-04T13:51:26.314Z,64.08
2019-04-04T13:53:57.117Z,63.92
2019-04-04T13:56:29.238Z,63.51
2019-04-04T13:59:01.016Z,63.18
2019-04-04T14:01:30.429Z,63.31
2019-04-04T14:04:00.369Z,63.37
2019-04-04T14:06:30.665Z,63.44
2019-04-04T14:09:00.586Z,63.56
2019-04-04T14:11:30.703Z,63.55
2019-04-04T14:14:00.561Z,63.90
2019-04-04T14:16:30.419Z,64.08
2019-04-04T14:19:00.247Z,64.13
2019-04-04T14:21:30.504Z,64.12
2019-04-04T14:24:12.382Z,64.02
2019-04-04T14:26:32.110Z,63.99
2019-04-04T14:29:04.490Z,64.33
2019-04-04T14:31:33.378Z,64.91
2019-04-04T14:34:03.200Z,65.33
2019-04-04T14:36:33.335Z,65.35
2019-04-04T14:39:04.894Z,65.40
2019-04-04T14:41:34.888Z,65.45
2019-04-04T14:44:04.932Z,65.50
2019-04-04T14:46:34.888Z,65.49
2019-04-04T14:49:04.792Z,65.70
2019-04-04T14:51:34.659Z,65.66
2019-04-04T14:54:04.915Z,65.77
2019-04-04T14:56:34.889Z,65.79
2019-04-04T14:59:04.991Z,65.91
2019-04-04T15:01:35.149Z,66.10
2019-04-04T15:04:05.452Z,66.16
2019-04-04T15:06:35.447Z,66.23
2019-04-04T15:09:08.794Z,66.08
2019-04-04T15:11:38.722Z,65.53
2019-04-04T15:14:08.617Z,65.22
2019-04-04T15:16:38.439Z,65.10
2019-04-04T15:19:08.405Z,65.08
2019-04-04T15:21:38.793Z,64.75
2019-04-04T15:24:08.601Z,64.19
2019-04-04T15:26:38.966Z,63.79
2019-04-04T15:29:08.823Z,64.00
2019-04-04T15:31:40.220Z,64.58
2019-04-04T15:34:10.315Z,65.15
2019-04-04T15:36:40.512Z,65.43
2019-04-04T15:39:10.426Z,65.61
2019-04-04T15:41:40.371Z,65.47
2019-04-04T15:44:10.176Z,65.72
2019-04-04T15:46:40.377Z,65.73
2019-04-04T15:49:10.257Z,65.83
2019-04-04T15:51:40.202Z,65.88
2019-04-04T15:54:10.111Z,65.94
2019-04-04T15:56:39.980Z,65.79
2019-04-04T15:59:09.811Z,65.84
2019-04-04T16:01:40.029Z,65.65
2019-04-04T16:04:10.130Z,65.61
2019-04-04T16:06:40.130Z,65.69
2019-04-04T16:09:10.203Z,65.73
2019-04-04T16:11:49.426Z,65.61
2019-04-04T16:14:11.949Z,64.97
2019-04-04T16:16:41.954Z,64.26
2019-04-04T16:19:13.209Z,63.85
2019-04-04T16:21:43.245Z,63.81
2019-04-04T16:24:13.397Z,63.89
2019-04-04T16:26:44.040Z,64.08
2019-04-04T16:29:13.970Z,64.45
2019-04-04T16:31:43.884Z,64.69
2019-04-04T16:34:14.526Z,64.71
2019-04-04T16:36:44.658Z,64.59
2019-04-04T16:39:14.536Z,64.66
2019-04-04T16:41:44.574Z,64.86
2019-04-04T16:44:14.397Z,64.91
2019-04-04T16:46:44.370Z,65.20
2019-04-04T16:49:14.211Z,65.17
2019-04-04T16:51:44.188Z,65.17
2019-04-04T16:54:14.310Z,65.07
2019-04-04T16:56:44.092Z,64.99
2019-04-04T16:59:14.028Z,64.88
2019-04-04T17:01:43.827Z,64.87
2019-04-04T17:04:13.755Z,64.83
2019-04-04T17:06:44.059Z,65.01
2019-04-04T17:09:14.141Z,65.02
2019-04-04T17:11:44.045Z,65.40
2019-04-04T17:14:14.186Z,65.65
2019-04-04T17:16:44.136Z,65.66
2019-04-04T17:19:14.211Z,65.88
2019-04-04T17:21:44.070Z,65.97
2019-04-04T17:24:13.824Z,66.00
2019-04-04T17:26:44.136Z,65.93
2019-04-04T17:29:14.000Z,65.81
2019-04-04T17:31:43.785Z,65.60
2019-04-04T17:34:13.618Z,65.68
2019-04-04T17:36:43.324Z,65.65
2019-04-04T17:39:13.254Z,65.80
2019-04-04T17:41:43.605Z,66.16
2019-04-04T17:44:13.550Z,66.25
2019-04-04T17:46:43.761Z,66.02
2019-04-04T17:49:13.595Z,66.01
2019-04-04T17:51:43.683Z,66.07
2019-04-04T17:54:13.471Z,66.23
2019-04-04T17:56:43.380Z,66.24
2019-04-04T17:59:13.230Z,66.34
2019-04-04T18:01:43.186Z,66.35
2019-04-04T18:04:13.066Z,66.30
2019-04-04T18:06:43.168Z,66.40
2019-04-04T18:09:13.252Z,66.27
2019-04-04T18:11:43.225Z,66.36
2019-04-04T18:14:13.357Z,66.57
2019-04-04T18:16:43.194Z,66.37
2019-04-04T18:19:12.913Z,66.38
2019-04-04T18:21:43.896Z,66.54
2019-04-04T18:24:13.952Z,66.52
2019-04-04T18:26:43.992Z,66.42
2019-04-04T18:29:13.912Z,66.42
2019-04-04T18:31:43.969Z,66.47
2019-04-04T18:34:13.810Z,66.39
2019-04-04T18:36:43.891Z,66.50
2019-04-04T18:39:13.923Z,67.29
2019-04-04T18:41:43.903Z,67.35
2019-04-04T18:44:13.870Z,67.10
2019-04-04T18:46:43.826Z,66.87
2019-04-04T18:49:13.645Z,66.55
2019-04-04T18:51:43.623Z,66.86
2019-04-04T18:54:13.654Z,66.86
2019-04-04T18:56:43.874Z,67.00
2019-04-04T18:59:13.863Z,67.09
2019-04-04T19:01:43.919Z,66.96
2019-04-04T19:04:15.189Z,66.91
2019-04-04T19:06:45.112Z,67.29
2019-04-04T19:09:16.088Z,67.43
2019-04-04T19:11:46.306Z,67.29
2019-04-04T19:14:16.400Z,67.31
2019-04-04T19:16:46.427Z,67.23
2019-04-04T19:19:16.478Z,67.63
2019-04-04T19:21:46.626Z,67.90
2019-04-04T19:24:16.598Z,67.66
2019-04-04T19:26:46.636Z,67.11
2019-04-04T19:29:16.546Z,67.43
2019-04-04T19:31:46.522Z,67.49
2019-04-04T19:34:16.541Z,67.29
2019-04-04T19:36:46.536Z,67.28
2019-04-04T19:39:18.120Z,67.42
2019-04-04T19:41:48.214Z,67.07
2019-04-04T19:44:18.687Z,66.96
2019-04-04T19:46:48.834Z,67.12
2019-04-04T19:49:19.213Z,67.49
2019-04-04T19:51:49.270Z,66.91
2019-04-04T19:54:22.014Z,67.00
2019-04-04T19:56:52.088Z,66.80
2019-04-04T19:59:21.960Z,66.84
2019-04-04T20:01:51.839Z,66.94
2019-04-04T20:04:21.982Z,67.18
2019-04-04T20:06:51.954Z,67.31
2019-04-04T20:09:22.044Z,67.44
2019-04-04T20:11:52.065Z,67.71
2019-04-04T20:14:22.101Z,67.39
2019-04-04T20:16:52.174Z,67.20
2019-04-04T20:19:22.524Z,67.01
2019-04-04T20:21:52.513Z,66.79
2019-04-04T20:24:22.683Z,66.77
2019-04-04T20:26:52.710Z,66.70
2019-04-04T20:29:22.724Z,66.60
2019-04-04T20:31:52.606Z,67.04
2019-04-04T20:34:23.418Z,67.21
2019-04-04T20:36:53.748Z,67.30
2019-04-04T20:39:23.636Z,67.58
2019-04-04T20:41:53.522Z,67.55
2019-04-04T20:44:23.495Z,67.47
2019-04-04T20:46:53.973Z,67.45
2019-04-04T20:49:26.019Z,67.47
2019-04-04T20:51:55.972Z,67.34
2019-04-04T20:54:26.041Z,67.28
2019-04-04T20:56:56.266Z,67.20
2019-04-04T20:59:28.055Z,67.19
2019-04-04T21:01:57.919Z,67.34
2019-04-04T21:04:27.901Z,67.53
2019-04-04T21:06:58.219Z,67.57
2019-04-04T21:09:28.372Z,67.45
2019-04-04T21:11:58.325Z,67.36
2019-04-04T21:14:28.594Z,67.24
2019-04-04T21:16:59.082Z,67.39
2019-04-04T21:19:28.913Z,67.50
2019-04-04T21:21:59.128Z,67.24
2019-04-04T21:24:29.114Z,67.64
2019-04-04T21:26:59.343Z,67.76
2019-04-04T21:29:29.244Z,67.55
2019-04-04T21:32:00.126Z,68.03
2019-04-04T21:34:29.963Z,68.02
2019-04-04T21:36:59.927Z,68.00
2019-04-04T21:39:33.005Z,67.96
2019-04-04T21:42:02.570Z,67.86
2019-04-04T21:44:32.439Z,67.84
2019-04-04T21:47:02.323Z,67.95
2019-04-04T21:49:32.229Z,67.87
2019-04-04T21:52:02.019Z,67.40
2019-04-04T21:54:32.145Z,67.48
2019-04-04T21:57:02.027Z,67.59
2019-04-04T21:59:32.037Z,67.57
2019-04-04T22:02:02.166Z,67.38
2019-04-04T22:04:32.031Z,67.26
2019-04-04T22:07:01.921Z,67.03
2019-04-04T22:09:33.722Z,67.18
2019-04-04T22:12:03.473Z,67.37
2019-04-04T22:14:33.386Z,67.36
2019-04-04T22:17:03.446Z,67.67
2019-04-04T22:19:34.184Z,67.82
2019-04-04T22:22:05.111Z,67.85
2019-04-04T22:24:35.023Z,67.59
2019-04-04T22:27:05.054Z,67.34
2019-04-04T22:29:36.289Z,67.33
2019-04-04T22:32:06.202Z,67.34
2019-04-04T22:34:36.092Z,67.16
2019-04-04T22:37:06.136Z,67.35
2019-04-04T22:39:36.308Z,67.38
2019-04-04T22:42:06.212Z,67.31
2019-04-04T22:44:37.406Z,67.49
2019-04-04T22:47:07.276Z,67.61
2019-04-04T22:49:37.104Z,67.61
2019-04-04T22:52:06.886Z,67.62
2019-04-04T22:54:36.973Z,67.84
2019-04-04T22:57:07.024Z,68.02
2019-04-04T22:59:36.905Z,68.01
2019-04-04T23:02:06.780Z,67.88
2019-04-04T23:04:42.764Z,67.91
2019-04-04T23:07:12.525Z,68.17
2019-04-04T23:09:42.499Z,68.24
2019-04-04T23:12:12.346Z,68.29
2019-04-04T23:14:48.012Z,68.38
2019-04-04T23:17:13.655Z,68.40
2019-04-04T23:19:43.407Z,68.42
2019-04-04T23:22:13.451Z,68.47
2019-04-04T23:24:43.868Z,68.31
2019-04-04T23:27:13.923Z,68.41
2019-04-04T23:29:45.815Z,68.60
2019-04-04T23:32:15.885Z,68.51
2019-04-04T23:34:45.627Z,68.45
2019-04-04T23:37:15.674Z,68.54
2019-04-04T23:39:45.428Z,68.71
2019-04-04T23:42:15.773Z,68.67
2019-04-04T23:44:45.970Z,68.60
2019-04-04T23:47:15.848Z,68.72
2019-04-04T23:49:45.698Z,68.77
2019-04-04T23:52:15.710Z,68.79
2019-04-04T23:54:45.539Z,68.76
2019-04-04T23:57:16.400Z,68.65
2019-04-04T23:59:46.306Z,68.58
